Time;durP1;ratioP1;P1;durP2;ratioP2;P2;SDS_P1;SDS_P2;PMS_P1;PMS_P2;Temp;Humidity;BMP_temperature;BMP_pressure;BME280_temperature;BME280_humidity;BME280_pressure;Samples;Min_cycle;Max_cycle;Signal;HPM_P1;HPM_P2
2023/11/14 00:01:54;;;;;;;2.13;1.08;;;;;;;11.56;54.52;98932.47;5070134;28;20037;-78
2023/11/14 00:04:20;;;;;;;1.90;1.00;;;;;;;11.61;54.49;98931.25;5053886;28;20028;-77
2023/11/14 00:06:45;;;;;;;3.45;1.10;;;;;;;11.59;54.58;98934.84;5053671;28;20466;-77
2023/11/14 00:09:10;;;;;;;2.42;0.82;;;;;;;11.53;54.51;98926.66;5071581;28;20472;-77
2023/11/14 00:11:36;;;;;;;4.05;0.85;;;;;;;11.57;54.50;98930.66;5053772;28;20116;-77
2023/11/14 00:14:03;;;;;;;3.13;1.13;;;;;;;11.56;54.25;98934.25;5053429;28;20400;-77
2023/11/14 00:16:28;;;;;;;3.58;1.05;;;;;;;11.55;54.53;98936.00;5057431;28;20029;-76
2023/11/14 00:18:54;;;;;;;1.80;0.90;;;;;;;11.50;54.53;98927.69;5076688;28;20131;-77
2023/11/14 00:21:20;;;;;;;2.17;1.10;;;;;;;11.52;54.67;98927.59;5057727;28;20021;-76
2023/11/14 00:23:46;;;;;;;1.95;0.90;;;;;;;11.54;54.32;98934.38;5072335;28;20020;-77
2023/11/14 00:26:12;;;;;;;2.90;1.10;;;;;;;11.53;54.67;98932.69;5071882;28;20028;-78
2023/11/14 00:28:37;;;;;;;1.88;0.93;;;;;;;11.51;54.48;98932.00;5058349;28;20087;-78
2023/11/14 00:31:03;;;;;;;1.50;0.80;;;;;;;11.50;54.46;98943.38;5053254;28;20036;-75
2023/11/14 00:33:28;;;;;;;2.78;1.20;;;;;;;11.46;54.58;98943.75;5052360;28;20056;-77
2023/11/14 00:35:55;;;;;;;5.90;1.00;;;;;;;11.50;54.41;98947.78;5070127;28;20056;-78
2023/11/14 00:38:20;;;;;;;4.72;1.10;;;;;;;11.47;54.73;98937.56;5037357;28;20075;-78
2023/11/14 00:40:47;;;;;;;3.03;1.15;;;;;;;11.48;54.29;98939.22;5038562;28;20055;-78
2023/11/14 00:43:12;;;;;;;2.72;1.25;;;;;;;11.43;54.63;98946.59;5057478;28;20025;-77
2023/11/14 00:45:38;;;;;;;3.00;1.00;;;;;;;11.45;54.24;98942.06;5057145;28;20046;-77
2023/11/14 00:48:04;;;;;;;4.22;1.90;;;;;;;11.40;54.50;98934.56;5074912;28;20494;-77
2023/11/14 00:50:29;;;;;;;8.85;4.80;;;;;;;11.40;54.66;98938.03;5040546;28;20475;-77
2023/11/14 00:52:54;;;;;;;16.38;8.30;;;;;;;11.38;54.55;98939.91;5074859;28;20035;-78
2023/11/14 00:55:20;;;;;;;20.73;10.70;;;;;;;11.31;54.48;98933.50;5074999;28;20032;-78
2023/11/14 00:57:45;;;;;;;23.67;11.95;;;;;;;11.34;54.39;98945.53;5073812;28;20086;-77
2023/11/14 01:00:12;;;;;;;24.73;12.95;;;;;;;11.28;54.59;98931.13;5073603;28;20399;-78
2023/11/14 01:02:39;;;;;;;24.00;12.65;;;;;;;11.25;54.58;98933.16;5073909;28;20033;-76
2023/11/14 01:05:05;;;;;;;22.05;11.63;;;;;;;11.23;54.44;98922.81;5073508;28;20097;-76
2023/11/14 01:07:31;;;;;;;18.23;11.18;;;;;;;11.28;54.56;98932.91;5040167;28;20032;-76
2023/11/14 01:09:56;;;;;;;21.20;11.32;;;;;;;11.21;54.28;98930.75;5040165;28;20494;-76
2023/11/14 01:12:23;;;;;;;18.00;9.70;;;;;;;11.18;54.69;98922.31;5074439;28;20040;-76
2023/11/14 01:14:48;;;;;;;18.55;9.93;;;;;;;11.22;54.32;98929.81;5056208;28;20523;-76
2023/11/14 01:17:14;;;;;;;15.93;8.27;;;;;;;11.13;54.53;98914.00;5056403;28;20036;-76
2023/11/14 01:19:40;;;;;;;17.15;7.13;;;;;;;11.16;54.59;98924.22;5073563;28;20039;-76
2023/11/14 01:22:05;;;;;;;12.15;6.25;;;;;;;11.12;54.69;98917.56;5039690;28;20040;-76
2023/11/14 01:24:31;;;;;;;10.43;5.70;;;;;;;11.09;54.36;98913.41;5073207;28;20055;-76
2023/11/14 01:26:56;;;;;;;12.02;5.55;;;;;;;11.13;54.57;98921.84;5056499;28;20033;-76
2023/11/14 01:29:22;;;;;;;7.88;4.90;;;;;;;11.09;54.72;98923.84;5073006;28;20021;-76
2023/11/14 01:31:47;;;;;;;8.45;4.53;;;;;;;11.04;54.63;98918.16;5072428;28;20142;-76
2023/11/14 01:34:13;;;;;;;5.88;3.75;;;;;;;11.07;54.30;98928.38;5039240;28;20045;-76
2023/11/14 01:36:38;;;;;;;6.32;3.63;;;;;;;11.06;54.71;98931.09;5056516;28;20175;-75
2023/11/14 01:39:05;;;;;;;6.35;3.10;;;;;;;11.03;54.55;98925.13;5072902;28;20028;-75
2023/11/14 01:41:30;;;;;;;8.40;3.50;;;;;;;11.00;54.52;98916.69;5055706;28;20039;-75
2023/11/14 01:43:56;;;;;;;4.43;2.50;;;;;;;11.01;54.35;98929.66;5039350;28;20037;-76
2023/11/14 01:46:21;;;;;;;4.88;2.42;;;;;;;11.01;54.28;98928.81;5056545;28;20094;-76
2023/11/14 01:48:48;;;;;;;6.15;2.22;;;;;;;10.96;54.56;98915.25;5056025;28;20024;-76
2023/11/14 01:51:15;;;;;;;4.20;2.00;;;;;;;10.99;54.49;98922.88;5039413;28;20029;-75
2023/11/14 01:53:40;;;;;;;2.92;1.85;;;;;;;10.97;54.78;98914.31;5056073;28;20029;-76
2023/11/14 01:56:07;;;;;;;3.72;1.85;;;;;;;10.96;54.58;98913.50;5039232;28;20028;-76
2023/11/14 01:58:34;;;;;;;3.42;1.80;;;;;;;10.94;54.78;98910.19;5072444;28;20032;-76
2023/11/14 02:01:00;;;;;;;3.70;1.73;;;;;;;10.95;54.54;98919.66;5055484;28;20109;-76
2023/11/14 02:03:26;;;;;;;3.22;1.75;;;;;;;10.92;54.50;98913.84;5039260;28;20036;-75
2023/11/14 02:05:52;;;;;;;3.03;1.70;;;;;;;10.90;54.63;98913.94;5039100;28;20492;-76
2023/11/14 02:08:18;;;;;;;3.55;1.80;;;;;;;10.91;54.36;98901.72;5072074;28;20029;-76
2023/11/14 02:10:43;;;;;;;2.92;1.80;;;;;;;10.89;54.50;98898.41;5055608;28;20403;-76
2023/11/14 02:13:09;;;;;;;4.15;1.80;;;;;;;10.86;54.56;98897.69;5055405;28;20029;-76
2023/11/14 02:15:35;;;;;;;3.00;1.52;;;;;;;10.86;54.67;98894.22;5056051;28;20028;-75
2023/11/14 02:18:00;;;;;;;5.28;1.90;;;;;;;10.86;54.47;98886.38;5056070;28;20055;-75
2023/11/14 02:20:26;;;;;;;3.58;1.98;;;;;;;10.83;54.77;98879.63;5072062;28;20356;-75
2023/11/14 02:22:52;;;;;;;3.35;1.75;;;;;;;10.85;54.90;98890.78;5071777;28;20032;-76
2023/11/14 02:25:17;;;;;;;3.75;1.73;;;;;;;10.84;54.72;98896.13;5071936;28;20036;-76
2023/11/14 02:27:43;;;;;;;3.80;1.50;;;;;;;10.83;54.82;98897.06;5055174;28;20029;-76
2023/11/14 02:30:09;;;;;;;3.17;1.80;;;;;;;10.83;54.94;98897.06;5055480;28;20033;-76
2023/11/14 02:32:34;;;;;;;4.35;1.60;;;;;;;10.81;54.87;98886.72;5038336;28;20057;-76
2023/11/14 02:35:00;;;;;;;3.85;2.67;;;;;;;10.78;54.92;98888.75;5071653;28;20028;-76
2023/11/14 02:37:25;;;;;;;9.15;5.07;;;;;;;10.83;55.07;98902.28;5055098;28;20032;-76
2023/11/14 02:39:51;;;;;;;12.80;6.57;;;;;;;10.81;54.87;98896.34;5055248;28;20047;-76
2023/11/14 02:42:16;;;;;;;13.73;6.93;;;;;;;10.85;55.04;98900.41;5071084;28;20040;-76
2023/11/14 02:44:42;;;;;;;15.05;8.20;;;;;;;10.85;54.71;98903.03;5054781;28;20037;-75
2023/11/14 02:47:07;;;;;;;14.73;8.82;;;;;;;10.83;54.97;98903.13;5038228;28;20093;-75
2023/11/14 02:49:57;;;;;;;18.33;9.57;;;;;;;10.81;55.00;98899.78;5071431;28;20024;-76
2023/11/14 02:52:23;;;;;;;15.70;8.82;;;;;;;10.77;54.92;98892.28;5054785;28;20039;-75
2023/11/14 02:54:50;;;;;;;16.25;8.95;;;;;;;10.80;55.03;98905.97;5054367;28;20028;-75
2023/11/14 02:57:16;;;;;;;15.70;8.45;;;;;;;10.77;54.99;98900.13;5038741;28;20034;-75
2023/11/14 02:59:41;;;;;;;13.98;8.40;;;;;;;10.79;54.95;98919.97;5054605;28;20404;-75
2023/11/14 03:02:07;;;;;;;15.77;8.05;;;;;;;10.75;54.90;98922.91;5037846;28;20109;-75
2023/11/14 03:04:33;;;;;;;12.40;7.03;;;;;;;10.78;55.04;98922.69;5054260;28;20025;-75
2023/11/14 03:06:58;;;;;;;10.80;6.90;;;;;;;10.74;54.85;98910.84;5071178;28;20115;-75
2023/11/14 03:09:24;;;;;;;9.52;6.20;;;;;;;10.76;55.04;98906.31;5054518;28;20025;-76
2023/11/14 03:11:49;;;;;;;8.82;5.40;;;;;;;10.75;55.14;98913.28;5070958;28;20098;-75
2023/11/14 03:14:15;;;;;;;8.20;4.70;;;;;;;10.73;54.86;98914.38;5054829;28;20399;-76
2023/11/14 03:16:40;;;;;;;7.45;4.45;;;;;;;10.68;55.17;98904.28;5071217;28;20032;-78
2023/11/14 03:19:06;;;;;;;7.45;4.05;;;;;;;10.66;55.23;98903.56;5037709;28;20475;-77
2023/11/14 03:21:31;;;;;;;6.65;3.95;;;;;;;10.71;54.98;98914.50;5054434;28;20384;-77
2023/11/14 03:23:57;;;;;;;5.88;3.47;;;;;;;10.64;55.07;98911.50;5071029;28;20032;-77
2023/11/14 03:26:32;;;;;;;5.10;3.13;;;;;;;10.71;55.14;98924.13;5054963;28;20036;-77
2023/11/14 03:28:57;;;;;;;6.28;3.30;;;;;;;10.72;54.98;98928.38;5071662;28;20025;-76
2023/11/14 03:31:23;;;;;;;5.32;3.15;;;;;;;10.66;55.02;98916.63;5071091;28;20036;-76
2023/11/14 03:33:49;;;;;;;5.78;3.20;;;;;;;10.65;54.90;98928.81;5070602;28;20067;-76
2023/11/14 03:36:15;;;;;;;3.78;2.70;;;;;;;10.66;55.00;98938.31;5070872;28;20484;-77
2023/11/14 03:38:40;;;;;;;4.65;2.80;;;;;;;10.65;55.24;98941.03;5054504;28;20033;-76
2023/11/14 03:41:05;;;;;;;4.75;2.40;;;;;;;10.64;55.22;98942.84;5070733;28;20028;-77
2023/11/14 03:43:31;;;;;;;4.05;1.90;;;;;;;10.64;54.90;98949.81;5070743;28;20542;-76
2023/11/14 03:45:56;;;;;;;4.07;2.65;;;;;;;10.60;55.14;98953.63;5072070;28;20035;-76
2023/11/14 03:48:22;;;;;;;3.35;2.10;;;;;;;10.59;55.27;98950.16;5054171;28;20475;-76
2023/11/14 03:50:47;;;;;;;4.35;2.20;;;;;;;10.62;55.22;98954.31;5070826;28;20099;-77
2023/11/14 03:53:13;;;;;;;2.90;1.90;;;;;;;10.56;55.36;98945.16;5054048;28;20056;-76
2023/11/14 03:55:38;;;;;;;2.85;1.90;;;;;;;10.60;55.21;98951.81;5070845;28;20028;-76
2023/11/14 03:58:06;;;;;;;4.00;2.28;;;;;;;10.60;55.21;98944.00;5070614;28;20048;-78
2023/11/14 04:00:32;;;;;;;4.57;2.05;;;;;;;10.55;55.02;98945.25;5053777;28;20105;-76
2023/11/14 04:02:58;;;;;;;4.38;2.10;;;;;;;10.55;54.85;98937.44;5053786;28;20036;-77
2023/11/14 04:05:23;;;;;;;2.97;1.83;;;;;;;10.57;55.09;98959.06;5070097;28;20031;-76
2023/11/14 04:07:49;;;;;;;3.22;2.05;;;;;;;10.54;55.08;98952.25;5053472;28;20108;-76
2023/11/14 04:10:14;;;;;;;3.83;2.22;;;;;;;10.53;55.46;98953.22;5053975;28;20029;-76
2023/11/14 04:12:40;;;;;;;3.28;2.20;;;;;;;10.52;54.85;98962.00;5071830;28;20449;-76
2023/11/14 04:15:06;;;;;;;3.85;2.15;;;;;;;10.52;55.03;98961.16;5071000;28;20032;-76
2023/11/14 04:17:32;;;;;;;4.28;2.00;;;;;;;10.46;55.04;98957.22;5074157;28;20039;-77
2023/11/14 04:19:57;;;;;;;2.78;1.92;;;;;;;10.47;55.14;98957.09;5057812;28;20078;-77
2023/11/14 04:22:23;;;;;;;3.30;2.10;;;;;;;10.45;54.86;98969.44;5057112;28;20032;-77
2023/11/14 04:24:48;;;;;;;4.45;1.92;;;;;;;10.45;55.02;98965.97;5040570;28;20501;-77
2023/11/14 04:27:14;;;;;;;3.67;2.00;;;;;;;10.40;54.96;98960.25;5074968;28;20044;-77
2023/11/14 04:29:40;;;;;;;5.60;1.83;;;;;;;10.41;55.00;98970.59;5075142;28;20109;-77
2023/11/14 04:32:06;;;;;;;3.17;2.20;;;;;;;10.40;54.95;98963.69;5074673;28;20580;-76
2023/11/14 04:34:33;;;;;;;4.57;2.08;;;;;;;10.27;54.99;98950.66;5073640;28;20029;-76
2023/11/14 04:36:59;;;;;;;4.07;2.30;;;;;;;10.34;55.49;98969.34;5075236;28;20039;-76
2023/11/14 04:39:25;;;;;;;9.43;4.65;;;;;;;10.31;55.02;98970.41;5075184;28;20029;-77
2023/11/14 04:41:53;;;;;;;13.85;7.75;;;;;;;10.37;54.88;98974.34;5047006;28;20029;-77
2023/11/14 04:44:18;;;;;;;19.85;10.73;;;;;;;10.35;55.40;98971.03;5022115;28;20028;-76
2023/11/14 04:46:44;;;;;;;19.55;11.90;;;;;;;10.30;54.82;98963.50;5036837;28;20099;-85
2023/11/14 04:49:10;;;;;;;21.02;11.90;;;;;;;10.33;55.05;98970.31;5037063;28;20037;-84
2023/11/14 04:51:35;;;;;;;20.45;11.52;;;;;;;10.31;54.88;98967.78;5037298;28;20098;-80
2023/11/14 04:54:01;;;;;;;20.15;10.48;;;;;;;10.27;55.08;98953.28;5053922;28;20056;-82
2023/11/14 04:56:26;;;;;;;14.70;7.57;;;;;;;10.41;59.19;98956.72;5037050;28;20484;-83
2023/11/14 04:58:52;;;;;;;14.20;6.60;;;;;;;10.51;61.46;98957.72;5037352;28;20061;-76
2023/11/14 05:01:17;;;;;;;12.65;5.47;;;;;;;10.77;68.23;98952.34;5056811;28;20029;-80
2023/11/14 05:03:43;;;;;;;5.88;3.08;;;;;;;10.97;70.91;98943.88;5021025;28;20025;-87
2023/11/14 05:06:08;;;;;;;10.77;4.03;;;;;;;10.97;64.29;98932.59;5053487;28;20043;-84
2023/11/14 05:08:34;;;;;;;6.32;3.58;;;;;;;10.88;62.14;98938.50;5053827;28;20032;-86
2023/11/14 05:10:59;;;;;;;5.35;3.60;;;;;;;10.83;61.97;98931.88;5037018;28;20033;-87
2023/11/14 05:13:25;;;;;;;7.28;3.45;;;;;;;10.74;60.82;98927.31;5035586;28;20067;-76
2023/11/14 05:15:50;;;;;;;6.60;3.80;;;;;;;10.69;60.65;98926.84;5019527;28;20033;-76
2023/11/14 05:18:16;;;;;;;5.07;2.88;;;;;;;10.59;59.88;98926.66;5019885;28;20021;-79
2023/11/14 05:20:41;;;;;;;5.88;3.15;;;;;;;10.57;60.07;98928.56;5036559;28;20068;-79
2023/11/14 05:23:07;;;;;;;5.40;3.00;;;;;;;10.55;59.79;98927.84;5035779;28;20087;-79
2023/11/14 05:25:33;;;;;;;7.13;3.08;;;;;;;10.48;59.50;98922.25;5052792;28;20091;-79
2023/11/14 05:27:59;;;;;;;7.80;3.05;;;;;;;10.46;59.22;98912.84;5053447;28;20451;-80
2023/11/14 05:30:25;;;;;;;5.20;2.90;;;;;;;10.57;58.64;98930.34;5052960;28;20041;-78
2023/11/14 05:32:50;;;;;;;4.82;2.78;;;;;;;10.70;58.20;98922.44;5052403;28;20123;-79
2023/11/14 05:35:16;;;;;;;5.25;2.95;;;;;;;10.85;57.55;98924.75;5019591;28;20500;-80
2023/11/14 05:37:42;;;;;;;4.82;2.70;;;;;;;11.15;56.75;98933.84;5036139;28;20042;-79
2023/11/14 05:40:12;;;;;;;4.53;2.42;;;;;;;11.53;56.19;98937.09;5053847;28;20025;-80
2023/11/14 05:42:38;;;;;;;5.47;2.70;;;;;;;11.94;54.82;98941.75;5036862;28;20109;-81
2023/11/14 05:45:04;;;;;;;6.43;2.70;;;;;;;12.45;53.68;98955.22;5036097;28;20472;-78
2023/11/14 05:47:30;;;;;;;5.05;2.90;;;;;;;12.92;52.72;98947.03;5036196;28;20029;-78
2023/11/14 05:49:55;;;;;;;4.03;2.47;;;;;;;13.46;51.12;98945.22;5036188;28;20041;-80
2023/11/14 05:52:21;;;;;;;3.88;2.65;;;;;;;14.00;49.79;98956.34;5019469;28;20032;-79
2023/11/14 05:54:46;;;;;;;5.88;2.70;;;;;;;14.52;48.58;98958.78;5036098;28;20045;-81
2023/11/14 05:57:12;;;;;;;3.15;2.20;;;;;;;15.11;47.61;98947.31;5035917;28;20036;-79
2023/11/14 05:59:37;;;;;;;4.93;2.50;;;;;;;15.86;45.96;98959.72;5035706;28;20143;-80
2023/11/14 06:02:03;;;;;;;6.47;2.40;;;;;;;16.61;43.52;98965.66;5019275;28;20135;-78
2023/11/14 06:04:29;;;;;;;4.43;2.47;;;;;;;17.42;42.12;98960.38;5052160;28;20047;-80
2023/11/14 06:06:54;;;;;;;5.45;2.55;;;;;;;18.34;40.14;98964.09;5053808;28;20044;-79
2023/11/14 06:09:20;;;;;;;3.95;2.40;;;;;;;19.33;38.67;98974.78;5019090;28;20511;-78
2023/11/14 06:11:48;;;;;;;4.43;2.25;;;;;;;20.20;36.54;98963.44;5052569;28;20032;-79
2023/11/14 06:14:13;;;;;;;5.30;2.35;;;;;;;21.06;34.89;98958.91;5036031;28;20373;-78
2023/11/14 06:16:39;;;;;;;4.90;2.53;;;;;;;21.94;33.28;98967.16;5052153;28;20051;-79
2023/11/14 06:19:05;;;;;;;6.20;2.85;;;;;;;22.65;31.64;98961.22;5018720;28;20094;-79
2023/11/14 06:21:30;;;;;;;4.38;2.72;;;;;;;23.35;30.37;98963.28;5018866;28;20076;-77
2023/11/14 06:23:56;;;;;;;7.18;2.63;;;;;;;23.94;29.25;98954.00;5053071;28;20021;-84
2023/11/14 06:26:21;;;;;;;7.70;2.10;;;;;;;24.80;35.49;98952.63;5035457;28;20067;-84
2023/11/14 06:28:47;;;;;;;3.47;1.55;;;;;;;25.53;35.46;98951.81;5037501;28;20032;-82
2023/11/14 06:31:12;;;;;;;3.65;1.70;;;;;;;26.41;33.68;98974.53;5053207;28;20029;-72
2023/11/14 06:33:38;;;;;;;9.00;1.70;;;;;;;27.03;32.12;98969.41;5051345;28;20084;-71
2023/11/14 06:36:04;;;;;;;4.93;1.83;;;;;;;27.94;30.56;98969.78;5034966;28;20056;-74
2023/11/14 06:38:29;;;;;;;5.50;2.30;;;;;;;28.67;28.70;98968.88;5050869;28;20415;-75
2023/11/14 06:40:55;;;;;;;8.82;2.83;;;;;;;29.46;26.68;98978.56;5051499;28;20064;-75
2023/11/14 06:43:21;;;;;;;10.45;2.72;;;;;;;30.26;25.58;98970.81;5051272;28;20119;-74
2023/11/14 06:45:46;;;;;;;8.18;3.00;;;;;;;30.70;24.72;98971.09;5051727;28;20083;-74
2023/11/14 06:48:12;;;;;;;12.52;3.00;;;;;;;31.04;23.75;98973.81;5034821;28;20033;-74
2023/11/14 06:50:38;;;;;;;10.80;3.30;;;;;;;30.96;24.04;98968.81;5051458;28;20055;-76
2023/11/14 06:53:06;;;;;;;14.65;3.50;;;;;;;30.71;24.34;98974.59;5034969;28;20044;-73
2023/11/14 06:55:32;;;;;;;9.05;3.70;;;;;;;30.39;24.44;98975.94;5051438;28;20024;-73
2023/11/14 06:57:58;;;;;;;11.43;3.95;;;;;;;29.93;25.17;98969.63;5051421;28;20459;-76
2023/11/14 07:00:24;;;;;;;16.73;5.18;;;;;;;29.63;24.22;98981.34;5034822;28;20388;-76
2023/11/14 07:02:50;;;;;;;22.17;5.15;;;;;;;29.35;23.67;98982.06;5034976;28;20024;-73
2023/11/14 07:05:16;;;;;;;12.85;5.28;;;;;;;29.26;24.00;98988.84;5052791;28;20025;-74
2023/11/14 07:07:43;;;;;;;13.07;5.30;;;;;;;29.17;23.63;98986.47;5034420;28;20458;-73
2023/11/14 07:10:08;;;;;;;13.13;5.50;;;;;;;29.09;24.06;98994.06;5034769;28;20071;-74
2023/11/14 07:12:34;;;;;;;12.93;5.30;;;;;;;29.03;23.54;98996.63;5034761;28;20476;-80
2023/11/14 07:15:00;;;;;;;10.68;4.60;;;;;;;28.88;25.15;98996.25;5034731;28;20118;-78
2023/11/14 07:17:26;;;;;;;8.27;4.85;;;;;;;28.79;25.63;98990.38;5052690;28;20099;-82
2023/11/14 07:19:53;;;;;;;19.55;4.80;;;;;;;28.60;26.19;98994.19;5052167;28;20480;-84
2023/11/14 07:22:19;;;;;;;19.50;4.90;;;;;;;28.56;25.95;98985.72;5052400;28;20032;-81
2023/11/14 07:24:44;;;;;;;19.42;4.70;;;;;;;28.52;26.97;98984.53;5052228;28;20420;-83
2023/11/14 07:27:09;;;;;;;12.75;4.75;;;;;;;28.50;26.82;98979.41;5052944;28;20495;-73
2023/11/14 07:29:35;;;;;;;13.38;4.90;;;;;;;28.58;26.01;98980.16;5051067;28;20040;-73
2023/11/14 07:32:00;;;;;;;11.80;4.93;;;;;;;28.61;25.65;98974.34;5017645;28;20146;-73
2023/11/14 07:34:26;;;;;;;11.70;5.05;;;;;;;28.74;25.49;98974.13;5050871;28;20061;-72
2023/11/14 07:36:52;;;;;;;17.52;5.80;;;;;;;28.85;25.96;98970.66;5034964;28;20488;-77
2023/11/14 07:39:18;;;;;;;12.07;5.88;;;;;;;28.86;25.45;98966.09;5034605;28;20126;-73
2023/11/14 07:41:43;;;;;;;15.98;6.90;;;;;;;28.92;24.51;98967.84;5051193;28;20037;-77
2023/11/14 07:44:09;;;;;;;15.20;6.60;;;;;;;28.87;24.28;98965.03;5034303;28;20064;-78
2023/11/14 07:46:37;;;;;;;13.07;6.53;;;;;;;28.82;24.04;98962.25;5018704;28;20132;-79
2023/11/14 07:49:03;;;;;;;10.30;6.22;;;;;;;28.88;24.09;98964.00;5053126;28;20021;-77
2023/11/14 07:51:29;;;;;;;13.63;5.40;;;;;;;28.84;25.21;98965.50;5055463;28;20029;-78
2023/11/14 07:53:55;;;;;;;15.38;5.15;;;;;;;28.92;24.88;98961.66;5038674;28;20098;-80
2023/11/14 07:56:21;;;;;;;11.48;4.15;;;;;;;28.87;26.34;98967.72;5022166;28;20035;-78
2023/11/14 07:58:47;;;;;;;9.38;3.40;;;;;;;28.94;26.86;98973.81;5038427;28;20025;-79
2023/11/14 08:01:13;;;;;;;15.18;3.90;;;;;;;28.91;26.97;98958.16;5022735;28;20408;-78
2023/11/14 08:03:39;;;;;;;6.18;4.10;;;;;;;28.92;26.52;98954.41;5038864;28;20479;-79
2023/11/14 08:06:04;;;;;;;8.82;4.30;;;;;;;28.80;26.95;98950.91;5054986;28;20040;-82
2023/11/14 08:08:30;;;;;;;25.20;10.38;;;;;;;28.71;25.41;98950.41;5059628;28;20032;-83
2023/11/14 08:10:55;;;;;;;20.83;6.55;;;;;;;28.49;24.21;98945.53;5024749;28;20037;-83
2023/11/14 08:13:21;;;;;;;20.35;6.25;;;;;;;28.34;23.79;98937.91;5057108;28;20400;-79
2023/11/14 08:15:47;;;;;;;15.82;6.45;;;;;;;28.25;23.76;98939.28;5055995;28;20090;-77
2023/11/14 08:18:13;;;;;;;14.95;5.72;;;;;;;27.75;24.67;98940.28;5022352;28;20411;-79
2023/11/14 08:20:39;;;;;;;12.07;6.75;;;;;;;27.58;24.27;98934.69;5022247;28;20036;-76
2023/11/14 08:23:04;;;;;;;17.63;9.82;;;;;;;27.44;25.38;98934.00;5055474;28;20033;-77
2023/11/14 08:25:31;;;;;;;12.55;6.18;;;;;;;27.18;25.49;98937.72;5022995;28;20025;-83
2023/11/14 08:27:57;;;;;;;19.23;7.82;;;;;;;27.23;25.46;98937.06;5044030;28;20032;-81
2023/11/14 08:30:27;;;;;;;11.00;7.47;;;;;;;26.98;24.45;98929.06;5040205;28;20033;-82
2023/11/14 08:32:55;;;;;;;18.58;7.50;;;;;;;26.78;24.36;98923.88;5039418;28;20076;-74
2023/11/14 08:35:21;;;;;;;;;;;;;;;26.64;27.88;98936.50;5056100;28;20110;-75
2023/11/14 08:37:48;;;;;;;14.77;6.70;;;;;;;27.06;27.53;98918.09;5055223;28;19952;-75
2023/11/14 08:40:14;;;;;;;20.48;6.28;;;;;;;27.58;26.19;98920.47;5056683;28;20033;-74
2023/11/14 08:42:39;;;;;;;13.38;6.43;;;;;;;27.93;25.28;98918.00;5021933;28;20454;-77
2023/11/14 08:45:06;;;;;;;12.27;5.75;;;;;;;28.43;24.27;98918.78;5055997;28;20025;-77
2023/11/14 08:47:31;;;;;;;12.00;5.72;;;;;;;28.98;23.64;98918.56;5054878;28;20155;-74
2023/11/14 08:49:57;;;;;;;13.50;5.57;;;;;;;29.71;22.71;98919.09;5055425;28;20112;-77
2023/11/14 08:52:22;;;;;;;22.20;5.88;;;;;;;30.53;21.67;98914.50;5037429;28;20029;-74
2023/11/14 08:54:48;;;;;;;16.13;5.13;;;;;;;31.33;20.56;98909.84;5037872;28;20025;-76
2023/11/14 08:57:14;;;;;;;19.88;5.78;;;;;;;32.15;19.72;98910.06;5054781;28;20519;-77
2023/11/14 08:59:40;;;;;;;11.73;5.05;;;;;;;33.24;18.58;98912.63;5055329;28;20040;-76
2023/11/14 09:02:06;;;;;;;12.65;5.45;;;;;;;34.21;17.60;98897.81;5037105;28;20502;-78
2023/11/14 09:04:32;;;;;;;10.15;5.43;;;;;;;34.96;16.92;98910.88;5037157;28;20103;-74
2023/11/14 09:06:57;;;;;;;11.65;4.72;;;;;;;35.44;16.04;98905.09;5053628;28;20091;-73
2023/11/14 09:09:23;;;;;;;12.25;4.57;;;;;;;35.47;16.22;98899.09;5053356;28;20115;-74
2023/11/14 09:11:49;;;;;;;9.15;3.80;;;;;;;34.83;16.64;98890.56;5037026;28;20037;-73
2023/11/14 09:14:14;;;;;;;10.85;4.40;;;;;;;34.09;17.25;98881.81;5036637;28;20029;-77
2023/11/14 09:16:40;;;;;;;12.50;4.15;;;;;;;33.18;18.60;98875.78;5036882;28;20480;-75
2023/11/14 09:19:06;;;;;;;8.52;3.75;;;;;;;32.58;18.78;98873.16;5053833;28;20117;-75
2023/11/14 09:21:32;;;;;;;11.30;3.78;;;;;;;32.32;19.02;98865.91;5053587;28;20033;-75
2023/11/14 09:23:58;;;;;;;12.30;3.60;;;;;;;32.46;19.00;98861.72;5053240;28;20071;-75
2023/11/14 09:26:24;;;;;;;11.70;3.85;;;;;;;33.13;18.63;98863.03;5036306;28;20086;-75
2023/11/14 09:28:49;;;;;;;7.00;3.40;;;;;;;34.13;17.38;98880.19;5053072;28;20476;-74
2023/11/14 09:31:15;;;;;;;11.57;3.88;;;;;;;34.89;16.53;98877.81;5020091;28;20052;-73
2023/11/14 09:33:42;;;;;;;7.82;3.85;;;;;;;35.42;16.32;98875.50;5052581;28;20136;-74
2023/11/14 09:36:09;;;;;;;8.13;3.10;;;;;;;35.67;16.17;98857.50;5036681;28;20025;-75
2023/11/14 09:38:34;;;;;;;8.13;3.00;;;;;;;35.29;16.39;98852.50;5036776;28;20033;-73
2023/11/14 09:41:00;;;;;;;6.13;2.90;;;;;;;35.15;16.58;98860.41;5036349;28;20028;-74
2023/11/14 09:43:26;;;;;;;5.82;2.67;;;;;;;34.68;16.82;98858.84;5036352;28;20104;-74
2023/11/14 09:45:52;;;;;;;7.65;2.72;;;;;;;34.31;17.27;98861.84;5019774;28;20036;-76
2023/11/14 09:48:18;;;;;;;9.80;2.63;;;;;;;34.06;17.77;98853.38;5036124;28;20025;-74
2023/11/14 09:50:45;;;;;;;6.05;2.50;;;;;;;33.74;18.19;98837.34;5019659;28;20464;-75
2023/11/14 09:53:12;;;;;;;7.70;2.65;;;;;;;33.46;18.44;98827.75;5036436;28;20025;-74
2023/11/14 09:55:38;;;;;;;8.77;2.58;;;;;;;33.24;18.36;98817.94;5052669;28;20134;-74
2023/11/14 09:58:05;;;;;;;6.75;2.47;;;;;;;33.02;18.81;98811.84;5052718;28;20083;-74
2023/11/14 10:00:31;;;;;;;8.05;2.88;;;;;;;32.82;18.92;98799.84;5036191;28;20060;-74
2023/11/14 10:02:57;;;;;;;6.18;2.53;;;;;;;32.50;19.27;98787.19;5019510;28;20071;-73
2023/11/14 10:05:22;;;;;;;5.43;2.53;;;;;;;32.30;19.53;98784.34;5019392;28;20060;-74
2023/11/14 10:07:51;;;;;;;4.80;2.53;;;;;;;32.04;19.71;98773.28;5035617;28;20447;-75
2023/11/14 10:10:16;;;;;;;5.18;2.38;;;;;;;31.81;19.97;98767.16;5035752;28;20037;-75
2023/11/14 10:12:42;;;;;;;5.82;2.60;;;;;;;31.56;20.35;98762.31;5035058;28;20476;-75
2023/11/14 10:15:08;;;;;;;10.90;2.50;;;;;;;31.27;20.87;98751.72;5019453;28;20037;-74
2023/11/14 10:17:40;;;;;;;5.25;2.28;;;;;;;31.04;20.75;98758.19;5018937;28;20064;-74
2023/11/14 10:20:07;;;;;;;6.95;2.33;;;;;;;30.80;21.57;98760.28;5053322;28;20322;-75
2023/11/14 10:22:34;;;;;;;5.93;2.40;;;;;;;30.53;21.90;98755.59;5035420;28;20069;-75
2023/11/14 10:24:59;;;;;;;5.85;2.50;;;;;;;30.24;22.13;98752.97;5052464;28;20124;-75
2023/11/14 10:27:29;;;;;;;4.70;2.45;;;;;;;29.99;22.25;98757.97;5019091;28;20125;-74
2023/11/14 10:29:54;;;;;;;4.68;2.80;;;;;;;29.83;22.23;98770.34;5019209;28;20551;-73
2023/11/14 10:32:22;;;;;;;8.15;2.90;;;;;;;29.65;22.66;98765.94;5035117;28;20053;-74
2023/11/14 10:34:47;;;;;;;5.95;2.80;;;;;;;29.47;22.78;98772.31;5051821;28;20507;-76
2023/11/14 10:37:13;;;;;;;6.72;3.13;;;;;;;29.25;23.02;98770.28;5035545;28;20128;-74
2023/11/14 10:39:51;;;;;;;5.88;2.90;;;;;;;29.03;23.19;98764.69;5019094;28;20021;-75
2023/11/14 10:42:17;;;;;;;7.70;2.80;;;;;;;28.96;23.25;98767.53;5018971;28;20144;-78
2023/11/14 10:45:12;;;;;;;6.57;2.80;;;;;;;28.86;23.41;98767.28;5035358;28;20021;-74
2023/11/14 10:47:38;;;;;;;7.07;2.97;;;;;;;28.57;23.44;98751.06;5034151;28;20037;-73
2023/11/14 10:50:27;;;;;;;5.60;2.90;;;;;;;28.45;23.86;98747.53;5033676;28;20053;-74
2023/11/14 10:52:53;;;;;;;10.55;2.70;;;;;;;28.36;24.20;98743.59;5020046;28;20033;-74
2023/11/14 10:55:22;;;;;;;4.85;2.70;;;;;;;28.17;24.51;98743.69;5033897;28;20032;-74
2023/11/14 10:57:51;;;;;;;5.85;2.70;;;;;;;28.00;24.95;98748.91;5050616;28;20037;-74
2023/11/14 11:00:22;;;;;;;7.65;2.88;;;;;;;27.73;24.86;98743.91;5033707;28;20029;-76
2023/11/14 11:02:52;;;;;;;7.38;2.88;;;;;;;27.56;25.38;98742.91;5018263;28;20556;-75
2023/11/14 11:05:19;;;;;;;8.38;2.83;;;;;;;27.40;25.27;98741.69;5034117;28;20068;-74
2023/11/14 11:07:45;;;;;;;;;;;;;;;27.20;25.72;98748.09;5017846;28;20506;-74
2023/11/14 11:10:12;;;;;;;3.67;2.25;;;;;;;26.97;25.81;98737.25;5050348;28;19908;-75
2023/11/14 11:12:38;;;;;;;6.07;2.50;;;;;;;26.84;25.92;98733.69;5034029;28;20111;-74
2023/11/14 11:15:04;;;;;;;5.25;2.22;;;;;;;26.76;26.43;98733.13;5033881;28;20527;-75
2023/11/14 11:17:39;;;;;;;5.07;2.25;;;;;;;26.66;26.45;98717.59;5016933;28;20044;-75
2023/11/14 11:20:09;;;;;;;5.75;2.35;;;;;;;26.47;26.79;98704.19;5017873;28;20074;-76
2023/11/14 11:23:08;;;;;;;7.18;2.63;;;;;;;26.30;26.77;98701.25;5034197;28;20131;-74
2023/11/14 11:25:34;;;;;;;7.72;2.53;;;;;;;26.11;27.30;98697.72;5051470;28;20495;-77
2023/11/14 11:28:19;;;;;;;5.40;2.60;;;;;;;26.02;27.05;98701.69;5050992;28;20043;-74